createdAt,value
2023-01-17T00:03:15.003Z,10.6
2023-01-17T00:08:21.067Z,10.6
2023-01-17T00:13:28.967Z,10.6
2023-01-17T00:18:35.055Z,10.6
2023-01-17T00:23:41.124Z,10.6
2023-01-17T00:28:49.070Z,10.6
2023-01-17T00:33:55.089Z,10.8
2023-01-17T00:39:01.189Z,10.8
2023-01-17T00:44:07.226Z,10.8
2023-01-17T00:49:13.288Z,10.8
2023-01-17T00:54:20.488Z,10.8
2023-01-17T00:59:26.508Z,10.8
2023-01-17T01:04:32.592Z,10.8
2023-01-17T01:09:38.664Z,10.8
2023-01-17T01:14:46.579Z,10.8
2023-01-17T01:19:52.836Z,10.8
2023-01-17T01:24:58.714Z,10.8
2023-01-17T01:30:06.862Z,10.8
2023-01-17T01:35:12.684Z,10.8
2023-01-17T01:40:18.794Z,10.8
2023-01-17T01:45:26.768Z,10.8
2023-01-17T01:50:33.096Z,10.8
2023-01-17T01:55:38.817Z,10.8
2023-01-17T02:00:46.889Z,10.8
2023-01-17T02:05:52.806Z,10.8
2023-01-17T02:10:58.888Z,10.8
2023-01-17T02:16:04.981Z,10.8
2023-01-17T02:21:12.895Z,10.8
2023-01-17T02:26:18.958Z,10.8
2023-01-17T02:31:25.030Z,10.8
2023-01-17T02:36:32.935Z,10.8
2023-01-17T02:41:39.007Z,10.8
2023-01-17T02:46:45.040Z,10.8
2023-01-17T02:51:51.103Z,10.8
2023-01-17T02:56:57.177Z,10.8
2023-01-17T03:02:03.331Z,10.8
2023-01-17T03:07:09.312Z,10.8
2023-01-17T03:12:15.364Z,10.8
2023-01-17T03:17:23.285Z,10.8
2023-01-17T03:22:29.336Z,10.8
2023-01-17T03:27:35.426Z,10.8
2023-01-17T03:32:43.335Z,10.8
2023-01-17T03:37:51.270Z,10.8
2023-01-17T03:42:59.261Z,10.8
2023-01-17T03:48:05.283Z,10.8
2023-01-17T03:53:13.204Z,10.8
2023-01-17T03:58:19.434Z,10.8
2023-01-17T04:03:25.349Z,10.8
2023-01-17T04:08:31.412Z,10.8
2023-01-17T04:13:37.501Z,10.8
2023-01-17T04:18:43.504Z,10.8
2023-01-17T04:23:51.462Z,10.7
2023-01-17T04:28:59.441Z,10.7
2023-01-17T04:34:05.475Z,10.7
2023-01-17T04:39:13.418Z,10.7
2023-01-17T04:44:19.505Z,10.7
2023-01-17T04:49:25.526Z,10.7
2023-01-17T04:54:31.597Z,10.7
2023-01-17T04:59:37.755Z,10.7
2023-01-17T05:04:43.720Z,10.7
2023-01-17T05:09:49.782Z,10.7
2023-01-17T05:14:55.870Z,10.7
2023-01-17T05:20:01.890Z,10.9
2023-01-17T05:25:07.947Z,10.9
2023-01-17T05:30:14.025Z,10.9
2023-01-17T05:35:20.061Z,10.9
2023-01-17T05:40:26.117Z,11.1
2023-01-17T05:45:34.102Z,11.1
2023-01-17T05:50:40.149Z,11.1
2023-01-17T05:55:46.182Z,11.3
2023-01-17T06:00:52.303Z,11.3
2023-01-17T06:05:58.288Z,11.3
2023-01-17T06:11:04.356Z,11.3
2023-01-17T06:16:10.451Z,11.3
2023-01-17T06:21:16.466Z,11.3
2023-01-17T06:26:22.541Z,11.3
2023-01-17T06:31:30.600Z,11.3
2023-01-17T06:36:36.508Z,11.3
2023-01-17T06:41:42.596Z,11.3
2023-01-17T06:46:48.766Z,11.3
2023-01-17T06:51:54.740Z,11.3
2023-01-17T06:57:00.753Z,11.3
2023-01-17T07:02:06.845Z,11.3
2023-01-17T07:07:12.887Z,11.3
2023-01-17T07:12:18.948Z,11.3
2023-01-17T07:17:25.052Z,11.3
2023-01-17T07:22:31.064Z,11.3
2023-01-17T07:27:37.125Z,11.3
2023-01-17T07:32:45.096Z,11.3
2023-01-17T07:37:53.018Z,11.3
2023-01-17T07:42:59.076Z,11.3
2023-01-17T07:48:05.157Z,11.3
2023-01-17T07:53:11.184Z,11.5
2023-01-17T07:58:17.243Z,11.5
2023-01-17T08:03:23.343Z,11.5
2023-01-17T08:08:29.368Z,11.5
2023-01-17T08:13:35.431Z,11.7
2023-01-17T08:18:43.436Z,11.7
2023-01-17T08:23:49.397Z,11.7
2023-01-17T08:28:57.367Z,11.4
2023-01-17T08:34:03.447Z,11.4
2023-01-17T08:39:11.364Z,11.4
2023-01-17T08:44:19.289Z,11.5
2023-01-17T08:49:27.279Z,11.5
2023-01-17T08:54:35.188Z,11.5
2023-01-17T08:59:43.170Z,11.5
2023-01-17T09:04:49.243Z,11.5
2023-01-17T09:09:55.271Z,11.5
2023-01-17T09:15:01.313Z,11.5
2023-01-17T09:20:08.030Z,11.5
2023-01-17T09:25:13.452Z,11.5
2023-01-17T09:30:19.521Z,11.5
2023-01-17T09:35:25.594Z,11.7
2023-01-17T09:40:31.661Z,11.7
2023-01-17T09:45:37.743Z,11.7
2023-01-17T09:50:43.745Z,11.7
2023-01-17T09:55:51.670Z,11.7
2023-01-17T10:00:57.829Z,11.7
2023-01-17T10:06:03.806Z,11.7
2023-01-17T10:11:09.859Z,11.7
2023-01-17T10:16:15.894Z,11.7
2023-01-17T10:21:22.000Z,11.7
2023-01-17T10:26:29.908Z,11.7
2023-01-17T10:31:35.963Z,11.5
2023-01-17T10:36:43.931Z,11.5
2023-01-17T10:41:51.856Z,11.5
2023-01-17T10:46:57.906Z,11.5
2023-01-17T10:52:03.985Z,11.5
2023-01-17T10:57:11.909Z,11.5
2023-01-17T11:02:18.104Z,11.5
2023-01-17T11:07:24.036Z,11.5
2023-01-17T11:12:30.103Z,11.5
2023-01-17T11:17:38.044Z,11.5
2023-01-17T11:22:44.097Z,11.5
2023-01-17T11:27:50.297Z,11.5
2023-01-17T11:32:56.188Z,11.6
2023-01-17T11:38:04.143Z,11.6
2023-01-17T11:43:10.172Z,11.5
2023-01-17T11:48:18.134Z,11.5
2023-01-17T11:53:24.287Z,11.5
2023-01-17T11:58:30.236Z,11.5
2023-01-17T12:03:36.354Z,11.4
2023-01-17T12:08:42.382Z,11.4
2023-01-17T12:13:50.295Z,11.4
2023-01-17T12:18:56.372Z,11.4
2023-01-17T12:24:04.321Z,11.4
2023-01-17T12:29:10.359Z,11.4
2023-01-17T12:34:16.458Z,11.4
2023-01-17T12:39:24.381Z,11.4
2023-01-17T12:44:32.313Z,11.4
2023-01-17T12:49:40.267Z,11.4
2023-01-17T12:54:49.475Z,11.4
2023-01-17T12:59:56.149Z,11.4
2023-01-17T13:05:04.100Z,11.4
2023-01-17T13:10:12.412Z,11.4
2023-01-17T13:15:19.990Z,11.4
2023-01-17T13:20:26.042Z,11.4
2023-01-17T13:25:33.283Z,11.4
2023-01-17T13:30:41.150Z,11.4
2023-01-17T13:35:47.239Z,11.4
2023-01-17T13:40:54.435Z,11.4
2023-01-17T13:46:02.469Z,11.4
2023-01-17T13:51:09.534Z,11.6
2023-01-17T13:56:17.490Z,11.6
2023-01-17T14:01:25.667Z,11.6
2023-01-17T14:06:33.324Z,11.4
2023-01-17T14:11:41.310Z,11.4
2023-01-17T14:16:49.226Z,11.6
2023-01-17T14:21:56.412Z,11.6
2023-01-17T14:27:03.625Z,11.6
2023-01-17T14:32:11.521Z,11.6
2023-01-17T14:37:18.706Z,11.6
2023-01-17T14:42:24.779Z,11.6
2023-01-17T14:47:31.937Z,11.4
2023-01-17T14:52:37.996Z,11.4
2023-01-17T14:57:44.081Z,11.4
2023-01-17T15:02:52.183Z,11.6
2023-01-17T15:07:59.193Z,11.4
2023-01-17T15:13:07.135Z,11.4
2023-01-17T15:18:14.341Z,11.4
2023-01-17T15:23:21.481Z,11.4
2023-01-17T15:28:28.678Z,11.5
2023-01-17T15:33:36.583Z,11.5
2023-01-17T15:38:42.637Z,11.5
2023-01-17T15:43:50.614Z,11.5
2023-01-17T15:48:56.664Z,11.4
2023-01-17T15:54:04.590Z,11.4
2023-01-17T15:59:12.549Z,11.4
2023-01-17T16:04:18.587Z,11.4
2023-01-17T16:09:26.526Z,11.4
2023-01-17T16:14:51.358Z,11.4
2023-01-17T16:19:40.511Z,11.3
2023-01-17T16:24:47.719Z,11.3
2023-01-17T16:29:56.353Z,11.3
2023-01-17T16:35:01.695Z,11.3
2023-01-17T16:40:09.654Z,11.3
2023-01-17T16:45:17.615Z,11.3
2023-01-17T16:50:25.588Z,11.3
2023-01-17T16:55:33.513Z,11.3
2023-01-17T17:00:41.472Z,11.3
2023-01-17T17:05:49.377Z,11.3
2023-01-17T17:10:57.323Z,11.3
2023-01-17T17:16:05.380Z,11.3
2023-01-17T17:21:13.231Z,11.3
2023-01-17T17:26:21.160Z,11.3
2023-01-17T17:31:29.258Z,11.5
2023-01-17T17:36:37.085Z,11.5
2023-01-17T17:41:45.031Z,11.5
2023-01-17T17:46:52.987Z,11.5
2023-01-17T17:52:00.898Z,11.5
2023-01-17T17:57:08.844Z,11.5
2023-01-17T18:02:16.136Z,11.5
2023-01-17T18:07:22.103Z,11.5
2023-01-17T18:12:29.282Z,11.5
2023-01-17T18:17:35.347Z,11.5
2023-01-17T18:22:41.390Z,11.5
2023-01-17T18:27:48.581Z,11.5
2023-01-17T18:32:55.778Z,11.5
2023-01-17T18:38:02.919Z,11.5
2023-01-17T18:43:10.097Z,11.5
2023-01-17T18:48:17.304Z,11.5
2023-01-17T18:53:24.478Z,11.5
2023-01-17T18:58:32.409Z,11.5
2023-01-17T19:03:38.557Z,11.5
2023-01-17T19:13:54.346Z,11.5
2023-01-17T19:19:00.447Z,11.5
2023-01-17T19:24:08.325Z,11.5
2023-01-17T19:29:16.296Z,11.5
2023-01-17T19:34:24.265Z,11.5
2023-01-17T19:39:32.166Z,11.6
2023-01-17T19:44:38.253Z,11.6
2023-01-17T19:49:46.227Z,11.6
2023-01-17T19:54:52.233Z,11.6
2023-01-17T19:59:58.280Z,11.6
2023-01-17T20:05:04.406Z,11.6
2023-01-17T20:10:10.432Z,11.6
2023-01-17T20:15:16.495Z,11.6
2023-01-17T20:20:22.570Z,11.6
2023-01-17T20:25:28.590Z,11.6
2023-01-17T20:35:44.499Z,11.6
2023-01-17T20:40:52.415Z,11.6
2023-01-17T20:45:58.528Z,11.6
2023-01-17T20:51:06.457Z,11.6
2023-01-17T20:56:14.391Z,11.6
2023-01-17T21:01:22.527Z,11.6
2023-01-17T21:06:30.297Z,11.6
2023-01-17T21:11:38.220Z,11.6
2023-01-17T21:16:46.267Z,11.6
2023-01-17T21:21:54.163Z,11.7
2023-01-17T21:27:02.064Z,11.7
2023-01-17T21:32:10.009Z,11.7
2023-01-17T21:37:18.006Z,11.7
2023-01-17T21:42:25.912Z,11.7
2023-01-17T21:47:33.862Z,11.7
2023-01-17T21:52:41.823Z,11.7
2023-01-17T21:57:49.733Z,11.7
2023-01-17T22:02:58.115Z,11.7
2023-01-17T22:08:01.901Z,11.7
2023-01-17T22:13:09.807Z,11.7
2023-01-17T22:18:15.862Z,11.7
2023-01-17T22:23:21.936Z,11.7
2023-01-17T22:28:29.852Z,11.7
2023-01-17T22:33:35.901Z,11.7
2023-01-17T22:38:42.005Z,11.7
2023-01-17T22:43:48.039Z,11.7
2023-01-17T22:48:54.117Z,11.7
2023-01-17T22:54:00.179Z,11.7
2023-01-17T22:59:06.227Z,11.7
2023-01-17T23:04:12.271Z,11.7
2023-01-17T23:09:18.361Z,11.7
2023-01-17T23:14:26.271Z,11.9
2023-01-17T23:19:32.333Z,11.9
2023-01-17T23:24:40.284Z,11.9
2023-01-17T23:29:46.315Z,11.9
2023-01-17T23:34:52.405Z,11.9
2023-01-17T23:39:58.468Z,11.9
2023-01-17T23:45:06.387Z,11.9
2023-01-17T23:50:12.469Z,11.9
2023-01-17T23:55:18.530Z,11.9
